Terminal Aerodrome Forecast
Issued by NWS Cleveland, OH

Home | Current Version | Previous Version | Graphics & Text | Print | Product List | Glossary On
Versions: 1 2 3 4 5 6 7 8 9 10 11 12 13 14 15 16 17 18 19 20 21 22 23
087
FTUS41 KCLE 151132
TAFERI
TAF
KERI 151132Z 1512/1612 22013G21KT P6SM OVC015
     FM152100 22010KT 1 1/2SM -RA BR OVC007
     FM160000 22008KT 1SM -RA BR OVC003
     FM160900 29007KT 3/4SM -SN OVC003=

USA.gov is the U.S. government's official web portal to all federal, state and local government web resources and services.